sensor_id;sensor_type;location;lat;lon;timestamp;temperature;humidity
15574;DHT22;7888;46.748;8.102;2023-06-01T00:01:56;20.40;45.20
15574;DHT22;7888;46.748;8.102;2023-06-01T00:04:21;20.40;45.40
15574;DHT22;7888;46.748;8.102;2023-06-01T00:06:47;20.40;45.40
15574;DHT22;7888;46.748;8.102;2023-06-01T00:09:13;20.30;45.50
15574;DHT22;7888;46.748;8.102;2023-06-01T00:11:39;20.30;45.60
15574;DHT22;7888;46.748;8.102;2023-06-01T00:14:04;20.20;45.40
15574;DHT22;7888;46.748;8.102;2023-06-01T00:16:30;20.20;45.50
15574;DHT22;7888;46.748;8.102;2023-06-01T00:18:57;20.20;45.60
15574;DHT22;7888;46.748;8.102;2023-06-01T00:21:26;20.10;45.60
15574;DHT22;7888;46.748;8.102;2023-06-01T00:23:52;20.10;45.80
15574;DHT22;7888;46.748;8.102;2023-06-01T00:26:18;20.10;45.90
15574;DHT22;7888;46.748;8.102;2023-06-01T00:28:44;20.00;46.00
15574;DHT22;7888;46.748;8.102;2023-06-01T00:31:10;20.00;46.20
15574;DHT22;7888;46.748;8.102;2023-06-01T00:33:36;20.00;46.20
15574;DHT22;7888;46.748;8.102;2023-06-01T00:36:02;20.00;46.20
15574;DHT22;7888;46.748;8.102;2023-06-01T00:38:28;20.00;46.40
15574;DHT22;7888;46.748;8.102;2023-06-01T00:40:53;20.00;46.40
15574;DHT22;7888;46.748;8.102;2023-06-01T00:43:19;19.90;46.40
15574;DHT22;7888;46.748;8.102;2023-06-01T00:45:45;19.90;46.50
15574;DHT22;7888;46.748;8.102;2023-06-01T00:48:12;19.90;46.70
15574;DHT22;7888;46.748;8.102;2023-06-01T00:50:41;19.90;46.80
15574;DHT22;7888;46.748;8.102;2023-06-01T00:53:11;19.90;46.70
15574;DHT22;7888;46.748;8.102;2023-06-01T00:55:41;19.90;46.80
15574;DHT22;7888;46.748;8.102;2023-06-01T00:58:08;19.90;46.60
15574;DHT22;7888;46.748;8.102;2023-06-01T01:00:34;19.90;46.80
15574;DHT22;7888;46.748;8.102;2023-06-01T01:02:59;19.90;46.90
15574;DHT22;7888;46.748;8.102;2023-06-01T01:05:33;19.80;47.00
15574;DHT22;7888;46.748;8.102;2023-06-01T01:11:01;19.80;47.20
15574;DHT22;7888;46.748;8.102;2023-06-01T01:13:44;19.80;46.90
15574;DHT22;7888;46.748;8.102;2023-06-01T01:16:46;19.80;47.50
15574;DHT22;7888;46.748;8.102;2023-06-01T01:19:42;19.80;47.30
15574;DHT22;7888;46.748;8.102;2023-06-01T01:30:54;19.70;47.40
15574;DHT22;7888;46.748;8.102;2023-06-01T01:33:24;19.70;47.20
15574;DHT22;7888;46.748;8.102;2023-06-01T01:35:52;19.70;47.30
15574;DHT22;7888;46.748;8.102;2023-06-01T01:38:18;19.70;47.30
15574;DHT22;7888;46.748;8.102;2023-06-01T01:40:44;19.60;47.10
15574;DHT22;7888;46.748;8.102;2023-06-01T01:43:10;19.60;47.20
15574;DHT22;7888;46.748;8.102;2023-06-01T01:45:37;19.60;47.50
15574;DHT22;7888;46.748;8.102;2023-06-01T01:48:28;19.60;47.50
15574;DHT22;7888;46.748;8.102;2023-06-01T01:51:10;19.60;48.50
15574;DHT22;7888;46.748;8.102;2023-06-01T01:53:42;19.60;47.70
15574;DHT22;7888;46.748;8.102;2023-06-01T01:56:13;19.60;47.60
15574;DHT22;7888;46.748;8.102;2023-06-01T01:58:39;19.60;47.80
15574;DHT22;7888;46.748;8.102;2023-06-01T02:01:07;19.60;47.80
15574;DHT22;7888;46.748;8.102;2023-06-01T02:03:34;19.50;47.80
15574;DHT22;7888;46.748;8.102;2023-06-01T02:06:00;19.50;47.80
15574;DHT22;7888;46.748;8.102;2023-06-01T02:08:25;19.50;47.70
15574;DHT22;7888;46.748;8.102;2023-06-01T02:10:51;19.40;47.80
15574;DHT22;7888;46.748;8.102;2023-06-01T02:13:17;19.40;47.80
15574;DHT22;7888;46.748;8.102;2023-06-01T02:15:43;19.40;47.90
15574;DHT22;7888;46.748;8.102;2023-06-01T02:18:09;19.40;47.90
15574;DHT22;7888;46.748;8.102;2023-06-01T02:20:34;19.40;48.00
15574;DHT22;7888;46.748;8.102;2023-06-01T02:23:00;19.30;48.00
15574;DHT22;7888;46.748;8.102;2023-06-01T02:25:26;19.30;47.90
15574;DHT22;7888;46.748;8.102;2023-06-01T02:27:52;19.30;47.90
15574;DHT22;7888;46.748;8.102;2023-06-01T02:30:17;19.30;47.80
15574;DHT22;7888;46.748;8.102;2023-06-01T02:32:43;19.30;48.10
15574;DHT22;7888;46.748;8.102;2023-06-01T02:35:14;19.30;48.10
15574;DHT22;7888;46.748;8.102;2023-06-01T02:37:40;19.30;48.20
15574;DHT22;7888;46.748;8.102;2023-06-01T02:40:06;19.30;48.10
15574;DHT22;7888;46.748;8.102;2023-06-01T02:42:38;19.30;48.20
15574;DHT22;7888;46.748;8.102;2023-06-01T02:45:08;19.30;48.30
15574;DHT22;7888;46.748;8.102;2023-06-01T02:47:35;19.20;48.60
15574;DHT22;7888;46.748;8.102;2023-06-01T02:50:00;19.20;48.50
15574;DHT22;7888;46.748;8.102;2023-06-01T02:52:26;19.20;48.50
15574;DHT22;7888;46.748;8.102;2023-06-01T02:54:52;19.20;48.50
15574;DHT22;7888;46.748;8.102;2023-06-01T02:57:18;19.20;48.50
15574;DHT22;7888;46.748;8.102;2023-06-01T02:59:44;19.20;48.70
15574;DHT22;7888;46.748;8.102;2023-06-01T03:02:11;19.20;48.60
15574;DHT22;7888;46.748;8.102;2023-06-01T03:04:37;19.20;48.60
15574;DHT22;7888;46.748;8.102;2023-06-01T03:07:03;19.10;48.70
15574;DHT22;7888;46.748;8.102;2023-06-01T03:09:29;19.10;48.70
15574;DHT22;7888;46.748;8.102;2023-06-01T03:11:56;19.10;48.80
15574;DHT22;7888;46.748;8.102;2023-06-01T03:14:21;19.10;49.00
15574;DHT22;7888;46.748;8.102;2023-06-01T03:16:47;19.10;49.00
15574;DHT22;7888;46.748;8.102;2023-06-01T03:19:13;19.10;49.00
15574;DHT22;7888;46.748;8.102;2023-06-01T03:21:39;19.10;48.90
15574;DHT22;7888;46.748;8.102;2023-06-01T03:24:05;19.10;49.00
15574;DHT22;7888;46.748;8.102;2023-06-01T03:26:32;19.00;49.10
15574;DHT22;7888;46.748;8.102;2023-06-01T03:28:58;19.00;49.10
15574;DHT22;7888;46.748;8.102;2023-06-01T03:31:23;19.10;49.20
15574;DHT22;7888;46.748;8.102;2023-06-01T03:33:49;19.00;49.20
15574;DHT22;7888;46.748;8.102;2023-06-01T03:36:15;19.00;49.10
15574;DHT22;7888;46.748;8.102;2023-06-01T03:38:41;19.00;49.30
15574;DHT22;7888;46.748;8.102;2023-06-01T03:41:08;19.00;49.20
15574;DHT22;7888;46.748;8.102;2023-06-01T03:43:34;19.00;49.10
15574;DHT22;7888;46.748;8.102;2023-06-01T03:45:59;19.00;49.10
15574;DHT22;7888;46.748;8.102;2023-06-01T03:48:25;19.00;49.30
15574;DHT22;7888;46.748;8.102;2023-06-01T03:50:51;19.00;49.40
15574;DHT22;7888;46.748;8.102;2023-06-01T03:53:17;19.00;49.40
15574;DHT22;7888;46.748;8.102;2023-06-01T03:55:43;19.00;49.50
15574;DHT22;7888;46.748;8.102;2023-06-01T03:58:09;19.00;49.50
15574;DHT22;7888;46.748;8.102;2023-06-01T04:00:35;19.00;49.60
15574;DHT22;7888;46.748;8.102;2023-06-01T04:03:02;19.00;49.70
15574;DHT22;7888;46.748;8.102;2023-06-01T04:05:32;18.90;49.70
15574;DHT22;7888;46.748;8.102;2023-06-01T04:07:58;19.00;49.80
15574;DHT22;7888;46.748;8.102;2023-06-01T04:10:24;18.90;49.80
15574;DHT22;7888;46.748;8.102;2023-06-01T04:12:51;18.90;49.80
15574;DHT22;7888;46.748;8.102;2023-06-01T04:15:19;18.90;49.80
15574;DHT22;7888;46.748;8.102;2023-06-01T04:17:45;19.00;49.90
15574;DHT22;7888;46.748;8.102;2023-06-01T04:20:13;18.90;49.90
15574;DHT22;7888;46.748;8.102;2023-06-01T04:22:41;18.90;50.00
15574;DHT22;7888;46.748;8.102;2023-06-01T04:25:13;18.90;49.90
15574;DHT22;7888;46.748;8.102;2023-06-01T04:27:50;19.00;50.30
15574;DHT22;7888;46.748;8.102;2023-06-01T04:30:20;19.00;50.50
15574;DHT22;7888;46.748;8.102;2023-06-01T04:32:47;19.00;50.00
15574;DHT22;7888;46.748;8.102;2023-06-01T04:35:14;19.00;50.20
15574;DHT22;7888;46.748;8.102;2023-06-01T04:37:41;19.00;50.20
15574;DHT22;7888;46.748;8.102;2023-06-01T04:40:09;19.00;50.10
15574;DHT22;7888;46.748;8.102;2023-06-01T04:42:40;19.10;50.20
15574;DHT22;7888;46.748;8.102;2023-06-01T04:45:09;19.10;50.30
15574;DHT22;7888;46.748;8.102;2023-06-01T04:47:35;19.10;49.80
15574;DHT22;7888;46.748;8.102;2023-06-01T04:50:09;19.10;49.90
15574;DHT22;7888;46.748;8.102;2023-06-01T04:52:39;19.10;50.10
15574;DHT22;7888;46.748;8.102;2023-06-01T04:55:07;19.20;50.20
15574;DHT22;7888;46.748;8.102;2023-06-01T04:57:35;19.20;50.10
15574;DHT22;7888;46.748;8.102;2023-06-01T05:00:05;19.20;50.20
15574;DHT22;7888;46.748;8.102;2023-06-01T05:02:34;19.20;50.60
15574;DHT22;7888;46.748;8.102;2023-06-01T05:05:00;19.30;50.40
15574;DHT22;7888;46.748;8.102;2023-06-01T05:07:26;19.30;50.50
15574;DHT22;7888;46.748;8.102;2023-06-01T05:09:51;19.30;50.50
15574;DHT22;7888;46.748;8.102;2023-06-01T05:12:17;19.40;50.40
15574;DHT22;7888;46.748;8.102;2023-06-01T05:14:43;19.40;50.30
15574;DHT22;7888;46.748;8.102;2023-06-01T05:17:09;19.50;50.30
15574;DHT22;7888;46.748;8.102;2023-06-01T05:19:34;19.50;50.20
15574;DHT22;7888;46.748;8.102;2023-06-01T05:22:00;19.50;50.20
15574;DHT22;7888;46.748;8.102;2023-06-01T05:24:26;19.50;50.20
15574;DHT22;7888;46.748;8.102;2023-06-01T05:26:52;19.60;50.30
15574;DHT22;7888;46.748;8.102;2023-06-01T05:29:18;19.60;50.20
15574;DHT22;7888;46.748;8.102;2023-06-01T05:31:45;19.60;50.30
15574;DHT22;7888;46.748;8.102;2023-06-01T05:34:11;19.60;50.40
15574;DHT22;7888;46.748;8.102;2023-06-01T05:36:38;19.70;50.40
15574;DHT22;7888;46.748;8.102;2023-06-01T05:39:04;19.70;50.20
15574;DHT22;7888;46.748;8.102;2023-06-01T05:41:31;19.70;50.30
15574;DHT22;7888;46.748;8.102;2023-06-01T05:43:57;19.70;50.30
15574;DHT22;7888;46.748;8.102;2023-06-01T05:46:23;19.80;50.40
15574;DHT22;7888;46.748;8.102;2023-06-01T05:48:50;19.80;50.20
15574;DHT22;7888;46.748;8.102;2023-06-01T05:51:16;19.90;50.20
15574;DHT22;7888;46.748;8.102;2023-06-01T05:53:43;19.80;50.10
15574;DHT22;7888;46.748;8.102;2023-06-01T05:56:09;19.90;49.90
15574;DHT22;7888;46.748;8.102;2023-06-01T05:58:35;19.90;49.70
15574;DHT22;7888;46.748;8.102;2023-06-01T06:01:01;20.00;49.60
15574;DHT22;7888;46.748;8.102;2023-06-01T06:03:27;20.00;49.60
15574;DHT22;7888;46.748;8.102;2023-06-01T06:05:54;20.10;49.50
15574;DHT22;7888;46.748;8.102;2023-06-01T06:08:20;20.10;49.40
15574;DHT22;7888;46.748;8.102;2023-06-01T06:10:46;20.10;49.40
15574;DHT22;7888;46.748;8.102;2023-06-01T06:13:13;20.10;49.40
15574;DHT22;7888;46.748;8.102;2023-06-01T06:15:39;20.20;49.40
15574;DHT22;7888;46.748;8.102;2023-06-01T06:18:05;20.20;49.60
15574;DHT22;7888;46.748;8.102;2023-06-01T06:20:31;20.30;49.70
15574;DHT22;7888;46.748;8.102;2023-06-01T06:22:57;20.40;49.50
15574;DHT22;7888;46.748;8.102;2023-06-01T06:25:23;20.50;49.60
15574;DHT22;7888;46.748;8.102;2023-06-01T06:27:48;20.60;49.50
15574;DHT22;7888;46.748;8.102;2023-06-01T06:30:14;20.70;49.40
15574;DHT22;7888;46.748;8.102;2023-06-01T06:32:40;20.70;49.30
15574;DHT22;7888;46.748;8.102;2023-06-01T06:35:06;20.80;49.20
15574;DHT22;7888;46.748;8.102;2023-06-01T06:37:32;20.90;49.20
15574;DHT22;7888;46.748;8.102;2023-06-01T06:39:58;21.00;49.10
15574;DHT22;7888;46.748;8.102;2023-06-01T06:42:24;21.10;48.90
15574;DHT22;7888;46.748;8.102;2023-06-01T06:44:50;21.20;48.70
15574;DHT22;7888;46.748;8.102;2023-06-01T06:47:16;21.20;48.60
15574;DHT22;7888;46.748;8.102;2023-06-01T06:49:45;21.30;48.40
15574;DHT22;7888;46.748;8.102;2023-06-01T06:52:11;21.40;48.30
15574;DHT22;7888;46.748;8.102;2023-06-01T06:54:40;21.40;48.20
15574;DHT22;7888;46.748;8.102;2023-06-01T06:57:06;21.50;48.20
15574;DHT22;7888;46.748;8.102;2023-06-01T06:59:33;21.60;48.20
15574;DHT22;7888;46.748;8.102;2023-06-01T07:02:02;21.70;48.10
15574;DHT22;7888;46.748;8.102;2023-06-01T07:04:29;21.90;47.90
15574;DHT22;7888;46.748;8.102;2023-06-01T07:06:56;22.00;47.90
15574;DHT22;7888;46.748;8.102;2023-06-01T07:09:22;22.00;47.70
15574;DHT22;7888;46.748;8.102;2023-06-01T07:11:49;22.20;47.50
15574;DHT22;7888;46.748;8.102;2023-06-01T07:14:16;22.20;47.60
15574;DHT22;7888;46.748;8.102;2023-06-01T07:16:42;22.30;47.50
15574;DHT22;7888;46.748;8.102;2023-06-01T07:19:08;22.40;47.40
15574;DHT22;7888;46.748;8.102;2023-06-01T07:21:34;22.50;47.30
15574;DHT22;7888;46.748;8.102;2023-06-01T07:24:01;22.60;47.30
15574;DHT22;7888;46.748;8.102;2023-06-01T07:26:27;22.70;47.30
15574;DHT22;7888;46.748;8.102;2023-06-01T07:28:55;22.80;47.20
15574;DHT22;7888;46.748;8.102;2023-06-01T07:31:22;23.00;47.10
15574;DHT22;7888;46.748;8.102;2023-06-01T07:33:49;23.10;47.00
15574;DHT22;7888;46.748;8.102;2023-06-01T07:36:17;23.20;46.90
15574;DHT22;7888;46.748;8.102;2023-06-01T07:38:43;23.30;46.60
15574;DHT22;7888;46.748;8.102;2023-06-01T07:41:10;23.50;46.50
15574;DHT22;7888;46.748;8.102;2023-06-01T07:43:37;23.50;46.30
15574;DHT22;7888;46.748;8.102;2023-06-01T07:46:04;23.70;46.20
15574;DHT22;7888;46.748;8.102;2023-06-01T07:48:29;23.80;46.20
15574;DHT22;7888;46.748;8.102;2023-06-01T07:51:01;23.90;46.20
15574;DHT22;7888;46.748;8.102;2023-06-01T07:53:28;24.10;46.10
15574;DHT22;7888;46.748;8.102;2023-06-01T07:55:54;24.20;45.70
15574;DHT22;7888;46.748;8.102;2023-06-01T07:58:20;24.30;45.50
15574;DHT22;7888;46.748;8.102;2023-06-01T08:00:46;24.40;45.30
15574;DHT22;7888;46.748;8.102;2023-06-01T08:03:12;24.50;45.30
15574;DHT22;7888;46.748;8.102;2023-06-01T08:05:40;24.60;45.20
15574;DHT22;7888;46.748;8.102;2023-06-01T08:08:08;24.70;45.00
15574;DHT22;7888;46.748;8.102;2023-06-01T08:10:34;24.80;44.80
15574;DHT22;7888;46.748;8.102;2023-06-01T08:13:00;24.90;44.70
15574;DHT22;7888;46.748;8.102;2023-06-01T08:15:27;25.00;44.60
15574;DHT22;7888;46.748;8.102;2023-06-01T08:17:55;25.10;44.50
15574;DHT22;7888;46.748;8.102;2023-06-01T08:20:22;25.20;44.50
15574;DHT22;7888;46.748;8.102;2023-06-01T08:22:49;25.30;44.20
15574;DHT22;7888;46.748;8.102;2023-06-01T08:25:16;25.40;44.20
15574;DHT22;7888;46.748;8.102;2023-06-01T08:27:42;25.50;44.10
15574;DHT22;7888;46.748;8.102;2023-06-01T08:30:09;25.70;43.70
15574;DHT22;7888;46.748;8.102;2023-06-01T08:32:35;25.80;43.60
15574;DHT22;7888;46.748;8.102;2023-06-01T08:35:01;25.90;43.40
15574;DHT22;7888;46.748;8.102;2023-06-01T08:37:26;26.00;43.40
15574;DHT22;7888;46.748;8.102;2023-06-01T08:39:52;26.00;43.90
15574;DHT22;7888;46.748;8.102;2023-06-01T08:42:25;26.10;43.60
15574;DHT22;7888;46.748;8.102;2023-06-01T08:45:06;26.20;42.60
15574;DHT22;7888;46.748;8.102;2023-06-01T08:47:33;26.30;42.70
15574;DHT22;7888;46.748;8.102;2023-06-01T08:50:02;26.40;42.50
15574;DHT22;7888;46.748;8.102;2023-06-01T08:52:29;26.50;42.30
15574;DHT22;7888;46.748;8.102;2023-06-01T08:55:01;26.60;42.00
15574;DHT22;7888;46.748;8.102;2023-06-01T08:57:29;26.70;41.30
15574;DHT22;7888;46.748;8.102;2023-06-01T08:59:55;26.70;41.30
15574;DHT22;7888;46.748;8.102;2023-06-01T09:02:22;26.80;41.20
15574;DHT22;7888;46.748;8.102;2023-06-01T09:04:49;26.90;41.30
15574;DHT22;7888;46.748;8.102;2023-06-01T09:07:16;26.90;41.00
15574;DHT22;7888;46.748;8.102;2023-06-01T09:09:42;26.90;41.20
15574;DHT22;7888;46.748;8.102;2023-06-01T09:12:20;27.00;40.90
15574;DHT22;7888;46.748;8.102;2023-06-01T09:17:38;27.10;40.90
15574;DHT22;7888;46.748;8.102;2023-06-01T09:20:06;27.20;40.60
15574;DHT22;7888;46.748;8.102;2023-06-01T09:22:45;27.20;40.50
15574;DHT22;7888;46.748;8.102;2023-06-01T09:25:12;27.30;40.30
15574;DHT22;7888;46.748;8.102;2023-06-01T09:27:47;27.40;40.00
15574;DHT22;7888;46.748;8.102;2023-06-01T09:30:15;27.50;39.50
15574;DHT22;7888;46.748;8.102;2023-06-01T09:32:43;27.70;39.80
15574;DHT22;7888;46.748;8.102;2023-06-01T09:35:13;27.80;39.60
15574;DHT22;7888;46.748;8.102;2023-06-01T09:37:54;27.90;39.60
15574;DHT22;7888;46.748;8.102;2023-06-01T09:40:24;28.10;38.80
15574;DHT22;7888;46.748;8.102;2023-06-01T09:42:50;28.20;39.00
15574;DHT22;7888;46.748;8.102;2023-06-01T09:45:19;28.30;38.70
15574;DHT22;7888;46.748;8.102;2023-06-01T09:47:47;28.40;38.30
15574;DHT22;7888;46.748;8.102;2023-06-01T09:50:35;28.50;38.50
15574;DHT22;7888;46.748;8.102;2023-06-01T09:53:04;28.70;37.90
15574;DHT22;7888;46.748;8.102;2023-06-01T09:55:31;28.80;38.30
15574;DHT22;7888;46.748;8.102;2023-06-01T09:58:16;28.90;38.20
15574;DHT22;7888;46.748;8.102;2023-06-01T10:00:47;29.00;37.50
15574;DHT22;7888;46.748;8.102;2023-06-01T10:03:15;29.10;38.00
15574;DHT22;7888;46.748;8.102;2023-06-01T10:05:46;29.20;37.80
15574;DHT22;7888;46.748;8.102;2023-06-01T10:08:14;29.30;37.50
15574;DHT22;7888;46.748;8.102;2023-06-01T10:10:46;29.40;37.60
15574;DHT22;7888;46.748;8.102;2023-06-01T10:13:13;29.40;37.10
15574;DHT22;7888;46.748;8.102;2023-06-01T10:15:39;29.50;37.20
15574;DHT22;7888;46.748;8.102;2023-06-01T10:18:06;29.50;36.90
15574;DHT22;7888;46.748;8.102;2023-06-01T10:20:36;29.50;36.70
15574;DHT22;7888;46.748;8.102;2023-06-01T10:23:04;29.40;36.40
15574;DHT22;7888;46.748;8.102;2023-06-01T10:25:37;29.40;36.50
15574;DHT22;7888;46.748;8.102;2023-06-01T10:28:10;29.40;36.50
15574;DHT22;7888;46.748;8.102;2023-06-01T10:30:37;29.40;36.80
15574;DHT22;7888;46.748;8.102;2023-06-01T10:33:03;29.30;36.60
15574;DHT22;7888;46.748;8.102;2023-06-01T10:38:22;29.30;37.20
15574;DHT22;7888;46.748;8.102;2023-06-01T10:40:48;29.20;36.40
15574;DHT22;7888;46.748;8.102;2023-06-01T10:46:02;29.10;36.30
15574;DHT22;7888;46.748;8.102;2023-06-01T10:48:51;29.20;36.80
15574;DHT22;7888;46.748;8.102;2023-06-01T10:51:21;29.10;36.60
15574;DHT22;7888;46.748;8.102;2023-06-01T10:53:51;29.10;36.50
15574;DHT22;7888;46.748;8.102;2023-06-01T10:56:22;29.10;36.70
15574;DHT22;7888;46.748;8.102;2023-06-01T10:59:12;29.10;36.70
15574;DHT22;7888;46.748;8.102;2023-06-01T11:01:40;29.10;36.30
15574;DHT22;7888;46.748;8.102;2023-06-01T11:04:08;29.10;36.50
15574;DHT22;7888;46.748;8.102;2023-06-01T11:06:38;29.10;36.40
15574;DHT22;7888;46.748;8.102;2023-06-01T11:09:07;29.10;35.90
15574;DHT22;7888;46.748;8.102;2023-06-01T11:14:14;29.00;35.80
15574;DHT22;7888;46.748;8.102;2023-06-01T11:16:41;29.00;36.00
15574;DHT22;7888;46.748;8.102;2023-06-01T11:19:08;29.00;36.20
15574;DHT22;7888;46.748;8.102;2023-06-01T11:21:39;29.10;36.20
15574;DHT22;7888;46.748;8.102;2023-06-01T11:24:13;29.10;36.10
15574;DHT22;7888;46.748;8.102;2023-06-01T11:29:15;29.20;36.20
15574;DHT22;7888;46.748;8.102;2023-06-01T11:31:51;29.20;36.00
15574;DHT22;7888;46.748;8.102;2023-06-01T11:34:21;29.30;36.40
15574;DHT22;7888;46.748;8.102;2023-06-01T11:37:05;29.40;36.50
15574;DHT22;7888;46.748;8.102;2023-06-01T11:39:32;29.50;36.70
15574;DHT22;7888;46.748;8.102;2023-06-01T11:44:33;29.60;36.30
15574;DHT22;7888;46.748;8.102;2023-06-01T11:46:59;29.60;36.10
15574;DHT22;7888;46.748;8.102;2023-06-01T11:49:26;29.70;36.60
15574;DHT22;7888;46.748;8.102;2023-06-01T11:51:53;29.70;35.90
15574;DHT22;7888;46.748;8.102;2023-06-01T11:54:26;29.70;36.00
15574;DHT22;7888;46.748;8.102;2023-06-01T11:56:54;29.70;36.00
15574;DHT22;7888;46.748;8.102;2023-06-01T11:59:21;29.70;36.10
15574;DHT22;7888;46.748;8.102;2023-06-01T12:01:48;29.70;35.90
15574;DHT22;7888;46.748;8.102;2023-06-01T12:04:16;29.70;36.10
15574;DHT22;7888;46.748;8.102;2023-06-01T12:06:44;29.70;36.10
15574;DHT22;7888;46.748;8.102;2023-06-01T12:09:12;29.70;36.10
15574;DHT22;7888;46.748;8.102;2023-06-01T12:11:41;29.60;35.90
15574;DHT22;7888;46.748;8.102;2023-06-01T12:14:10;29.60;36.00
15574;DHT22;7888;46.748;8.102;2023-06-01T12:19:25;29.70;36.10
15574;DHT22;7888;46.748;8.102;2023-06-01T12:21:54;29.70;36.00
15574;DHT22;7888;46.748;8.102;2023-06-01T12:24:32;29.80;35.70
15574;DHT22;7888;46.748;8.102;2023-06-01T12:26:59;29.80;35.00
15574;DHT22;7888;46.748;8.102;2023-06-01T12:29:48;29.90;35.60
15574;DHT22;7888;46.748;8.102;2023-06-01T12:32:17;29.90;35.80
15574;DHT22;7888;46.748;8.102;2023-06-01T12:34:44;30.00;35.90
15574;DHT22;7888;46.748;8.102;2023-06-01T12:37:27;30.00;35.70
15574;DHT22;7888;46.748;8.102;2023-06-01T12:39:54;30.10;35.60
15574;DHT22;7888;46.748;8.102;2023-06-01T12:42:37;30.10;35.70
15574;DHT22;7888;46.748;8.102;2023-06-01T12:45:05;30.20;35.40
15574;DHT22;7888;46.748;8.102;2023-06-01T12:47:37;30.30;35.60
15574;DHT22;7888;46.748;8.102;2023-06-01T12:50:08;30.30;34.90
15574;DHT22;7888;46.748;8.102;2023-06-01T12:52:36;30.40;34.70
15574;DHT22;7888;46.748;8.102;2023-06-01T12:55:03;30.40;35.10
15574;DHT22;7888;46.748;8.102;2023-06-01T12:57:30;30.50;35.10
15574;DHT22;7888;46.748;8.102;2023-06-01T12:59:57;30.50;34.80
15574;DHT22;7888;46.748;8.102;2023-06-01T13:02:23;30.50;34.80
15574;DHT22;7888;46.748;8.102;2023-06-01T13:04:49;30.60;34.90
15574;DHT22;7888;46.748;8.102;2023-06-01T13:07:16;30.70;35.00
15574;DHT22;7888;46.748;8.102;2023-06-01T13:09:42;30.70;35.10
15574;DHT22;7888;46.748;8.102;2023-06-01T13:12:08;30.70;34.90
15574;DHT22;7888;46.748;8.102;2023-06-01T13:14:35;30.70;34.90
15574;DHT22;7888;46.748;8.102;2023-06-01T13:17:01;30.70;34.70
15574;DHT22;7888;46.748;8.102;2023-06-01T13:19:28;30.70;34.60
15574;DHT22;7888;46.748;8.102;2023-06-01T13:21:54;30.70;34.30
15574;DHT22;7888;46.748;8.102;2023-06-01T13:24:21;30.80;34.30
15574;DHT22;7888;46.748;8.102;2023-06-01T13:26:47;30.90;34.20
15574;DHT22;7888;46.748;8.102;2023-06-01T13:29:13;30.90;34.20
15574;DHT22;7888;46.748;8.102;2023-06-01T13:31:39;30.90;33.90
15574;DHT22;7888;46.748;8.102;2023-06-01T13:34:04;30.80;33.80
15574;DHT22;7888;46.748;8.102;2023-06-01T13:36:31;30.80;33.90
15574;DHT22;7888;46.748;8.102;2023-06-01T13:38:56;30.80;33.90
15574;DHT22;7888;46.748;8.102;2023-06-01T13:41:23;30.80;34.00
15574;DHT22;7888;46.748;8.102;2023-06-01T13:43:49;30.80;33.90
15574;DHT22;7888;46.748;8.102;2023-06-01T13:46:14;30.80;33.80
15574;DHT22;7888;46.748;8.102;2023-06-01T13:48:41;30.80;33.90
15574;DHT22;7888;46.748;8.102;2023-06-01T13:51:07;30.90;34.00
15574;DHT22;7888;46.748;8.102;2023-06-01T13:53:33;30.90;34.10
15574;DHT22;7888;46.748;8.102;2023-06-01T13:56:01;31.00;33.80
15574;DHT22;7888;46.748;8.102;2023-06-01T13:58:28;31.10;33.60
15574;DHT22;7888;46.748;8.102;2023-06-01T14:00:54;31.20;33.60
15574;DHT22;7888;46.748;8.102;2023-06-01T14:03:20;31.20;33.40
15574;DHT22;7888;46.748;8.102;2023-06-01T14:05:46;31.30;33.20
15574;DHT22;7888;46.748;8.102;2023-06-01T14:08:12;31.30;33.20
15574;DHT22;7888;46.748;8.102;2023-06-01T14:10:38;31.30;33.30
15574;DHT22;7888;46.748;8.102;2023-06-01T14:13:03;31.30;33.20
15574;DHT22;7888;46.748;8.102;2023-06-01T14:15:29;31.40;33.40
15574;DHT22;7888;46.748;8.102;2023-06-01T14:17:55;31.40;33.30
15574;DHT22;7888;46.748;8.102;2023-06-01T14:20:21;31.50;33.00
15574;DHT22;7888;46.748;8.102;2023-06-01T14:22:47;31.50;32.80
15574;DHT22;7888;46.748;8.102;2023-06-01T14:25:13;31.50;32.60
15574;DHT22;7888;46.748;8.102;2023-06-01T14:27:39;31.50;32.70
15574;DHT22;7888;46.748;8.102;2023-06-01T14:30:06;31.50;32.70
15574;DHT22;7888;46.748;8.102;2023-06-01T14:32:32;31.50;32.50
15574;DHT22;7888;46.748;8.102;2023-06-01T14:34:59;31.50;32.40
15574;DHT22;7888;46.748;8.102;2023-06-01T14:37:24;31.50;32.30
15574;DHT22;7888;46.748;8.102;2023-06-01T14:39:50;31.50;32.30
15574;DHT22;7888;46.748;8.102;2023-06-01T14:42:17;31.60;32.40
15574;DHT22;7888;46.748;8.102;2023-06-01T14:44:43;31.60;32.10
15574;DHT22;7888;46.748;8.102;2023-06-01T14:47:09;31.60;32.90
15574;DHT22;7888;46.748;8.102;2023-06-01T14:49:39;31.70;32.10
15574;DHT22;7888;46.748;8.102;2023-06-01T14:52:06;31.70;32.10
15574;DHT22;7888;46.748;8.102;2023-06-01T14:54:32;31.70;32.60
15574;DHT22;7888;46.748;8.102;2023-06-01T14:56:57;31.80;32.00
15574;DHT22;7888;46.748;8.102;2023-06-01T14:59:24;31.80;31.80
15574;DHT22;7888;46.748;8.102;2023-06-01T15:01:50;31.90;31.90
15574;DHT22;7888;46.748;8.102;2023-06-01T15:04:15;31.90;31.90
15574;DHT22;7888;46.748;8.102;2023-06-01T15:06:41;32.00;31.90
15574;DHT22;7888;46.748;8.102;2023-06-01T15:09:07;32.10;31.70
15574;DHT22;7888;46.748;8.102;2023-06-01T15:11:33;32.20;31.70
15574;DHT22;7888;46.748;8.102;2023-06-01T15:13:59;32.20;31.70
15574;DHT22;7888;46.748;8.102;2023-06-01T15:16:25;32.30;31.80
15574;DHT22;7888;46.748;8.102;2023-06-01T15:18:52;32.40;31.90
15574;DHT22;7888;46.748;8.102;2023-06-01T15:21:18;32.40;31.70
15574;DHT22;7888;46.748;8.102;2023-06-01T15:23:45;32.60;31.70
15574;DHT22;7888;46.748;8.102;2023-06-01T15:26:10;32.60;31.40
15574;DHT22;7888;46.748;8.102;2023-06-01T15:28:36;32.70;31.40
15574;DHT22;7888;46.748;8.102;2023-06-01T15:31:02;32.70;31.30
15574;DHT22;7888;46.748;8.102;2023-06-01T15:33:28;32.80;31.10
15574;DHT22;7888;46.748;8.102;2023-06-01T15:35:53;32.80;31.00
15574;DHT22;7888;46.748;8.102;2023-06-01T15:38:19;32.80;30.90
15574;DHT22;7888;46.748;8.102;2023-06-01T15:40:47;32.70;30.80
15574;DHT22;7888;46.748;8.102;2023-06-01T15:43:13;32.60;30.60
15574;DHT22;7888;46.748;8.102;2023-06-01T15:45:39;32.40;30.80
15574;DHT22;7888;46.748;8.102;2023-06-01T15:48:05;32.20;30.90
15574;DHT22;7888;46.748;8.102;2023-06-01T15:50:31;32.00;31.10
15574;DHT22;7888;46.748;8.102;2023-06-01T15:52:57;31.80;31.30
15574;DHT22;7888;46.748;8.102;2023-06-01T15:55:22;31.60;31.50
15574;DHT22;7888;46.748;8.102;2023-06-01T15:57:48;31.40;31.60
15574;DHT22;7888;46.748;8.102;2023-06-01T16:00:14;31.30;31.80
15574;DHT22;7888;46.748;8.102;2023-06-01T16:02:40;31.10;31.80
15574;DHT22;7888;46.748;8.102;2023-06-01T16:05:06;30.90;32.40
15574;DHT22;7888;46.748;8.102;2023-06-01T16:07:32;30.80;32.10
15574;DHT22;7888;46.748;8.102;2023-06-01T16:09:58;30.70;32.50
15574;DHT22;7888;46.748;8.102;2023-06-01T16:12:24;30.60;32.40
15574;DHT22;7888;46.748;8.102;2023-06-01T16:14:51;30.60;32.10
15574;DHT22;7888;46.748;8.102;2023-06-01T16:17:16;30.50;31.60
15574;DHT22;7888;46.748;8.102;2023-06-01T16:19:42;30.40;31.30